Time;durP1;ratioP1;P1;durP2;ratioP2;P2;SDS_P1;SDS_P2;PMS_P1;PMS_P2;Temp;Humidity;BMP_temperature;BMP_pressure;BME280_temperature;BME280_humidity;BME280_pressure;Samples;Min_cycle;Max_cycle;Signal;HPM_P1;HPM_P2
2022/03/12 00:08:47;;;;;;;10.63;5.40;;;6.80;54.00;;;;;;6271760;22;20389;-95
2022/03/12 00:15:42;;;;;;;11.10;5.30;;;6.20;53.30;;;;;;6341648;22;20072;-92
2022/03/12 00:21:42;;;;;;;10.50;5.20;;;6.30;53.40;;;;;;6312268;22;20114;-96
2022/03/12 00:25:00;;;;;;;11.88;5.38;;;6.20;53.40;;;;;;6183237;23;20052;-91
2022/03/12 00:27:26;;;;;;;10.10;5.20;;;6.20;53.20;;;;;;6154967;23;20680;-96
2022/03/12 00:30:34;;;;;;;10.00;6.03;;;6.90;53.70;;;;;;6159936;23;20096;-91
2022/03/12 00:33:00;;;;;;;10.32;5.65;;;6.40;53.30;;;;;;6159193;23;20017;-91
2022/03/12 00:44:11;;;;;;;10.95;6.00;;;4.90;52.60;;;;;;6069744;23;20149;-96
2022/03/12 00:46:37;;;;;;;14.57;5.95;;;5.50;52.90;;;;;;5958879;24;20020;-88
2022/03/12 00:49:09;;;;;;;11.75;6.50;;;6.20;53.70;;;;;;5979665;24;20028;-95
2022/03/12 00:51:58;;;;;;;15.77;5.93;;;6.20;54.30;;;;;;5955485;24;20697;-91
2022/03/12 00:54:59;;;;;;;9.35;5.32;;;6.10;53.50;;;;;;5945971;24;20052;-90
2022/03/12 00:58:21;;;;;;;12.95;5.30;;;6.10;53.90;;;;;;6121080;22;20078;-94
2022/03/12 01:00:57;;;;;;;8.68;5.15;;;6.80;54.20;;;;;;6281880;22;20023;-93
2022/03/12 01:03:45;;;;;;;8.30;4.90;;;6.10;53.90;;;;;;6327978;22;20033;-91
2022/03/12 01:06:25;;;;;;;;;;;;;;;;;;;;;
2022/03/12 01:09:18;;;;;;;12.27;5.85;;;6.90;54.10;;;;;;6319406;22;20113;-91
2022/03/12 01:11:47;;;;;;;12.25;5.63;;;7.20;55.00;;;;;;6295821;22;20019;-93
2022/03/12 01:16:50;;;;;;;7.47;5.18;;;6.20;53.70;;;;;;6335145;22;20027;-88
2022/03/12 01:20:10;;;;;;;11.93;5.32;;;6.90;54.10;;;;;;6311469;22;20018;-92
2022/03/12 01:22:43;;;;;;;11.68;5.60;;;6.70;53.90;;;;;;6180292;23;20517;-90
2022/03/12 01:25:45;;;;;;;9.60;5.75;;;6.10;53.70;;;;;;6158255;23;20036;-93
2022/03/12 01:28:42;;;;;;;;;;;;;;;;;;;;;
2022/03/12 01:34:40;;;;;;;9.40;5.45;;;6.00;53.70;;;;;;6347306;22;20070;-91
2022/03/12 01:40:41;;;;;;;9.82;5.57;;;6.80;54.30;;;;;;6325756;22;20036;-89
2022/03/12 01:43:59;;;;;;;9.68;5.00;;;6.00;54.30;;;;;;6311130;22;20019;-92
2022/03/12 01:46:53;;;;;;;11.75;5.68;;;4.70;53.20;;;;;;6191506;23;20013;-90
2022/03/12 01:49:51;;;;;;;;;;;;;;;;;;;;;
2022/03/12 01:52:33;;;;;;;10.60;5.68;;;6.50;54.40;;;;;;6308661;22;20052;-88
2022/03/12 01:56:02;;;;;;;;;;;;;;;;;;;;;
2022/03/12 01:58:51;;;;;;;10.20;5.83;;;6.00;54.90;;;;;;6147912;23;20023;-92
2022/03/12 02:01:38;;;;;;;9.77;5.63;;;8.20;56.20;;;;;;6167172;23;20021;-94
2022/03/12 02:04:29;;;;;;;11.57;6.03;;;5.60;54.30;;;;;;6174273;23;20085;-92
2022/03/12 02:07:23;;;;;;;10.45;6.25;;;5.80;54.30;;;;;;6179512;23;20017;-92
2022/03/12 02:09:50;;;;;;;11.43;5.95;;;5.80;54.90;;;;;;6162244;23;20016;-89
2022/03/12 02:12:31;;;;;;;14.82;5.60;;;7.60;55.50;;;;;;6179990;23;20021;-91
2022/03/12 02:15:01;;;;;;;10.02;5.85;;;5.90;54.60;;;;;;6190578;23;20052;-95
2022/03/12 02:21:06;;;;;;;11.88;5.35;;;6.50;55.30;;;;;;6184212;23;20036;-93
2022/03/12 02:23:52;;;;;;;9.82;5.95;;;6.10;55.20;;;;;;6307308;22;20056;-95
2022/03/12 02:26:18;;;;;;;9.70;6.05;;;5.80;54.70;;;;;;6312948;22;20031;-95
2022/03/12 02:28:57;;;;;;;11.35;6.15;;;5.80;55.10;;;;;;6306848;22;20098;-89
2022/03/12 02:32:16;;;;;;;10.82;5.63;;;7.70;56.40;;;;;;6316668;22;20019;-90
2022/03/12 02:35:11;;;;;;;12.55;6.28;;;4.70;54.30;;;;;;6294368;22;20084;-91
2022/03/12 02:37:41;;;;;;;14.05;6.15;;;5.70;54.80;;;;;;6175144;22;20021;-87
2022/03/12 02:40:09;;;;;;;15.80;6.32;;;5.70;55.30;;;;;;6325250;22;20023;-90
2022/03/12 02:46:31;;;;;;;11.60;5.43;;;4.30;54.20;;;;;;6193588;23;20355;-91
2022/03/12 02:49:27;;;;;;;11.85;5.75;;;5.70;55.60;;;;;;6309018;22;20072;-95
2022/03/12 02:51:53;;;;;;;12.00;6.13;;;5.30;55.00;;;;;;6312073;22;20076;-92
2022/03/12 02:54:52;;;;;;;12.80;5.90;;;5.70;55.30;;;;;;6212852;23;20150;-89
2022/03/12 02:57:40;;;;;;;14.07;6.22;;;5.60;55.70;;;;;;6187924;23;20040;-93
2022/03/12 03:00:27;;;;;;;10.77;6.10;;;5.60;55.40;;;;;;6308907;22;20090;-92
2022/03/12 03:03:44;;;;;;;8.70;5.13;;;5.60;55.60;;;;;;6310438;22;20023;-92
2022/03/12 03:06:20;;;;;;;9.35;5.70;;;5.60;55.60;;;;;;6157221;23;20539;-90
2022/03/12 03:08:57;;;;;;;9.23;5.55;;;5.60;55.60;;;;;;6159779;23;20012;-92
2022/03/12 03:11:44;;;;;;;14.02;6.05;;;5.50;55.80;;;;;;6181385;23;20025;-91
2022/03/12 03:14:11;;;;;;;12.38;6.03;;;5.60;56.00;;;;;;6165511;23;20064;-90
2022/03/12 03:16:37;;;;;;;11.35;6.47;;;6.40;56.20;;;;;;6164151;23;20009;-93
2022/03/12 03:19:03;;;;;;;13.48;5.50;;;7.20;57.20;;;;;;6178746;23;20040;-89
2022/03/12 03:21:29;;;;;;;12.75;5.88;;;5.60;55.90;;;;;;6168627;23;20021;-90
2022/03/12 03:23:56;;;;;;;11.88;5.80;;;5.50;56.00;;;;;;6316369;22;20022;-94
2022/03/12 03:26:44;;;;;;;10.15;5.72;;;5.60;56.20;;;;;;6326124;22;20018;-93
2022/03/12 03:29:10;;;;;;;11.02;6.00;;;5.50;55.90;;;;;;6339717;22;20038;-90
2022/03/12 03:31:57;;;;;;;10.02;5.35;;;6.30;56.50;;;;;;6310106;22;20120;-89
2022/03/12 03:35:18;;;;;;;12.27;5.82;;;5.50;56.40;;;;;;6337089;22;20011;-90
2022/03/12 03:38:06;;;;;;;11.63;6.50;;;5.50;56.10;;;;;;6154906;23;20523;-96
2022/03/12 03:40:35;;;;;;;9.18;5.25;;;5.50;56.20;;;;;;6181580;23;20198;-95
2022/03/12 03:43:01;;;;;;;18.35;6.10;;;5.50;56.30;;;;;;6271977;22;20015;-91
2022/03/12 03:46:04;;;;;;;;;;;;;;;;;;;;;
2022/03/12 03:52:02;;;;;;;8.50;5.30;;;5.40;56.70;;;;;;6313249;22;20423;-92
2022/03/12 03:54:34;;;;;;;12.32;5.57;;;5.40;56.70;;;;;;6311265;22;20011;-90
2022/03/12 03:57:00;;;;;;;;;;;5.30;57.00;;;;;;6312761;22;20019;-88
2022/03/12 04:00:29;;;;;;;11.20;5.82;;;5.70;57.40;;;;;;6317564;22;19964;-89
2022/03/12 04:03:04;;;;;;;10.77;6.28;;;5.30;56.70;;;;;;6180941;23;20059;-88
2022/03/12 04:06:25;;;;;;;9.32;5.20;;;4.80;56.40;;;;;;6156442;23;20059;-94
2022/03/12 04:09:11;;;;;;;10.05;5.63;;;5.10;56.70;;;;;;6154646;23;20114;-90
2022/03/12 04:11:38;;;;;;;9.90;5.45;;;5.20;57.30;;;;;;6155546;23;20095;-91
2022/03/12 04:14:05;;;;;;;14.07;5.32;;;5.20;57.10;;;;;;6244161;22;20103;-91
2022/03/12 04:16:37;;;;;;;10.68;6.10;;;5.20;57.10;;;;;;6309544;22;20014;-90
2022/03/12 04:19:05;;;;;;;12.43;5.68;;;5.20;57.50;;;;;;6304096;22;20023;-88
2022/03/12 04:24:46;;;;;;;10.30;5.40;;;5.20;57.30;;;;;;6216751;23;20032;-94
2022/03/12 04:27:12;;;;;;;10.15;5.75;;;6.20;58.10;;;;;;6202252;23;20035;-91
2022/03/12 04:29:57;;;;;;;10.52;5.45;;;5.30;57.50;;;;;;6264907;22;20109;-90
2022/03/12 04:32:37;;;;;;;;;;;;;;;;;;;;;
2022/03/12 04:35:45;;;;;;;16.33;6.25;;;4.40;57.80;;;;;;6298009;22;20043;-89
2022/03/12 04:38:13;;;;;;;11.52;5.70;;;5.00;57.80;;;;;;6294682;22;20030;-89
2022/03/12 04:41:29;;;;;;;9.40;5.50;;;5.00;57.70;;;;;;6329301;22;20037;-95
2022/03/12 04:50:33;;;;;;;9.32;5.65;;;6.10;58.60;;;;;;6307747;22;20022;-89
2022/03/12 04:53:27;;;;;;;7.80;5.38;;;4.90;58.00;;;;;;6305380;22;20019;-91
2022/03/12 04:55:55;;;;;;;10.68;5.38;;;5.00;58.00;;;;;;6305243;22;20035;-91
2022/03/12 05:02:00;;;;;;;9.35;5.32;;;4.80;58.00;;;;;;6303461;22;20084;-93
2022/03/12 05:04:52;;;;;;;10.90;5.70;;;4.90;58.60;;;;;;6305324;22;20015;-90
2022/03/12 05:07:34;;;;;;;10.57;5.65;;;4.50;58.30;;;;;;6308388;22;20019;-89
2022/03/12 05:10:09;;;;;;;8.43;4.93;;;4.80;58.30;;;;;;6322369;22;20049;-91
2022/03/12 05:13:01;;;;;;;9.93;5.53;;;4.80;58.40;;;;;;6313830;22;20276;-90
2022/03/12 05:16:11;;;;;;;13.10;6.28;;;4.80;58.30;;;;;;6314200;22;20422;-91
2022/03/12 05:18:39;;;;;;;8.68;5.30;;;5.70;58.80;;;;;;6331429;22;20042;-95
2022/03/12 05:24:46;;;;;;;7.38;4.55;;;3.50;57.70;;;;;;6225515;22;20345;-92
2022/03/12 05:27:18;;;;;;;11.35;5.13;;;4.70;58.60;;;;;;6346070;22;20090;-89
2022/03/12 05:30:04;;;;;;;13.07;5.68;;;4.70;58.30;;;;;;6309124;22;20025;-91
2022/03/12 05:32:33;;;;;;;9.88;5.13;;;4.70;58.50;;;;;;6352989;22;20030;-90
2022/03/12 05:35:19;;;;;;;9.43;5.45;;;5.60;59.40;;;;;;6326954;22;20079;-92
2022/03/12 05:38:08;;;;;;;13.27;5.47;;;5.30;59.00;;;;;;6319611;22;20241;-91
2022/03/12 05:40:39;;;;;;;10.88;5.28;;;6.40;59.50;;;;;;6171483;23;20013;-89
2022/03/12 05:43:46;;;;;;;13.55;5.40;;;5.70;59.80;;;;;;6182061;23;20021;-92
2022/03/12 05:46:29;;;;;;;9.27;5.30;;;4.60;58.80;;;;;;6155834;23;20208;-90
2022/03/12 05:48:55;;;;;;;9.95;5.65;;;5.10;59.50;;;;;;6156042;23;20074;-91
2022/03/12 05:51:43;;;;;;;12.48;5.68;;;4.50;59.10;;;;;;6156456;23;20060;-95
2022/03/12 05:54:10;;;;;;;10.05;5.57;;;4.60;58.90;;;;;;6180289;23;20044;-92
2022/03/12 05:56:54;;;;;;;9.18;5.70;;;4.60;59.00;;;;;;6155806;23;20341;-89
2022/03/12 05:59:20;;;;;;;13.15;6.25;;;4.60;59.00;;;;;;6160586;22;20233;-88
2022/03/12 06:01:52;;;;;;;8.52;5.20;;;3.80;58.90;;;;;;6309000;22;20049;-91
2022/03/12 06:04:25;;;;;;;15.13;5.15;;;4.60;59.30;;;;;;6307554;22;20023;-89
2022/03/12 06:07:24;;;;;;;14.75;5.45;;;4.60;59.30;;;;;;6307505;22;20015;-91
2022/03/12 06:09:46;;;;;;;10.95;4.90;;;4.60;59.10;;;;;;6344396;22;20073;-94
2022/03/12 06:12:34;;;;;;;13.77;5.03;;;4.90;59.60;;;;;;6313916;22;20026;-92
2022/03/12 06:15:22;;;;;;;11.93;5.20;;;4.60;60.00;;;;;;6278377;22;20402;-89
2022/03/12 06:17:59;;;;;;;;;;;;;;;;;;;;;
2022/03/12 06:20:50;;;;;;;;;;;;;;;;;;;;;
2022/03/12 06:23:40;;;;;;;9.07;5.57;;;4.60;60.20;;;;;;6305229;22;20031;-88
2022/03/12 06:26:18;;;;;;;9.00;5.38;;;5.30;60.30;;;;;;6277918;22;20058;-90
2022/03/12 06:28:45;;;;;;;8.57;5.03;;;6.40;61.40;;;;;;6279182;22;20015;-87
2022/03/12 06:31:25;;;;;;;8.73;5.80;;;4.10;59.60;;;;;;6279789;22;20011;-90
2022/03/12 06:34:12;;;;;;;12.20;5.00;;;4.60;60.00;;;;;;6306505;22;20027;-89
2022/03/12 06:36:44;;;;;;;11.70;5.13;;;4.60;59.80;;;;;;6278068;22;20015;-88
2022/03/12 06:39:27;;;;;;;10.07;5.28;;;4.60;59.80;;;;;;6286873;22;20023;-88
2022/03/12 06:41:54;;;;;;;10.77;5.50;;;4.70;59.90;;;;;;6300028;22;20038;-90
2022/03/12 06:44:33;;;;;;;11.20;5.47;;;4.40;60.10;;;;;;6286885;22;20077;-91
2022/03/12 06:47:08;;;;;;;8.95;5.35;;;5.60;60.20;;;;;;6314956;22;20373;-91
2022/03/12 06:49:35;;;;;;;8.52;5.03;;;4.60;60.00;;;;;;6294713;22;20019;-90
2022/03/12 06:52:01;;;;;;;9.70;5.13;;;6.50;60.70;;;;;;6327155;22;20034;-89
2022/03/12 06:54:30;;;;;;;10.40;5.15;;;4.20;59.30;;;;;;6302242;22;20050;-91
2022/03/12 06:56:56;;;;;;;10.95;4.82;;;4.70;60.40;;;;;;6332258;22;20015;-94
2022/03/12 06:59:34;;;;;;;9.27;5.10;;;5.60;60.10;;;;;;6318030;22;20090;-92
2022/03/12 07:02:00;;;;;;;9.75;5.90;;;4.60;59.50;;;;;;6285691;22;20118;-90
2022/03/12 07:04:26;;;;;;;13.73;5.13;;;5.80;60.30;;;;;;6280608;22;20368;-92
2022/03/12 07:06:54;;;;;;;8.75;4.97;;;4.70;59.60;;;;;;6282453;22;20058;-90
2022/03/12 07:09:41;;;;;;;15.45;6.43;;;4.70;59.60;;;;;;6307840;22;20102;-90
2022/03/12 07:12:07;;;;;;;11.18;5.82;;;3.70;58.80;;;;;;6282909;22;20015;-88
2022/03/12 07:14:36;;;;;;;10.20;5.22;;;4.70;59.40;;;;;;6337223;22;20022;-90
2022/03/12 07:17:05;;;;;;;9.32;4.80;;;5.80;60.30;;;;;;6314874;22;20019;-94
2022/03/12 07:20:37;;;;;;;11.57;5.20;;;4.80;59.60;;;;;;6343543;22;20030;-96
2022/03/12 07:23:31;;;;;;;8.18;4.78;;;4.90;59.30;;;;;;6306227;22;20169;-94
2022/03/12 07:26:15;;;;;;;8.07;4.85;;;4.90;59.20;;;;;;6337816;22;20565;-93
2022/03/12 07:29:02;;;;;;;;;;;;;;;;;;;;;
2022/03/12 07:32:16;;;;;;;9.25;5.32;;;5.50;59.90;;;;;;6156839;23;20016;-93
2022/03/12 07:34:43;;;;;;;12.07;5.53;;;5.10;59.90;;;;;;6191192;23;20017;-92
2022/03/12 07:37:11;;;;;;;12.05;6.25;;;5.90;59.50;;;;;;6212020;23;20052;-93
2022/03/12 07:40:00;;;;;;;13.40;5.68;;;5.10;59.50;;;;;;6220932;23;20013;-92
2022/03/12 07:42:46;;;;;;;12.55;5.85;;;5.10;59.40;;;;;;6162938;23;20076;-93
2022/03/12 07:45:20;;;;;;;10.05;5.68;;;5.10;60.30;;;;;;6211173;23;20020;-86
2022/03/12 07:47:47;;;;;;;11.05;5.63;;;5.20;59.70;;;;;;6350761;22;20109;-93
2022/03/12 07:50:13;;;;;;;11.80;5.47;;;5.30;59.80;;;;;;6328426;22;20043;-88
2022/03/12 07:53:01;;;;;;;9.77;4.85;;;5.30;59.80;;;;;;6328305;22;19998;-93
2022/03/12 07:55:27;;;;;;;15.55;6.20;;;6.10;60.10;;;;;;6320889;22;20046;-91
2022/03/12 07:58:00;;;;;;;8.60;5.43;;;5.40;60.10;;;;;;6310970;22;20025;-91
2022/03/12 08:00:28;;;;;;;12.15;5.38;;;5.50;59.60;;;;;;6321112;22;20026;-90
2022/03/12 08:03:00;;;;;;;10.18;6.07;;;5.70;59.50;;;;;;6359511;22;20226;-89
2022/03/12 08:05:26;;;;;;;12.52;5.53;;;7.40;60.40;;;;;;6334427;22;20110;-90
2022/03/12 08:13:29;;;;;;;9.82;5.93;;;7.20;59.40;;;;;;6311289;22;20054;-87
2022/03/12 08:15:56;;;;;;;13.52;6.10;;;7.00;59.20;;;;;;6308215;22;20021;-88
2022/03/12 08:18:43;;;;;;;10.93;5.78;;;6.60;58.60;;;;;;6308897;22;20089;-88
2022/03/12 08:21:11;;;;;;;13.57;5.55;;;6.60;58.50;;;;;;6307753;22;20070;-89
2022/03/12 08:27:05;;;;;;;10.38;5.80;;;6.70;59.10;;;;;;6314924;22;20132;-89
2022/03/12 08:29:34;;;;;;;9.82;5.72;;;5.80;58.30;;;;;;6307266;22;20354;-89
2022/03/12 08:31:59;;;;;;;12.43;5.40;;;6.90;58.90;;;;;;6308731;22;20034;-87
2022/03/12 08:34:26;;;;;;;10.20;5.95;;;7.90;59.30;;;;;;6305878;22;20580;-87
2022/03/12 08:37:06;;;;;;;10.40;6.45;;;7.80;59.30;;;;;;6308185;22;20391;-93
2022/03/12 08:39:32;;;;;;;10.90;5.75;;;7.10;58.40;;;;;;6334817;22;20019;-92
2022/03/12 08:42:05;;;;;;;14.00;6.00;;;7.30;58.40;;;;;;6307789;22;20015;-87
2022/03/12 08:44:31;;;;;;;9.93;5.93;;;7.30;58.10;;;;;;6336985;22;20030;-87
2022/03/12 08:46:57;;;;;;;9.90;5.93;;;7.90;59.00;;;;;;6337668;22;20011;-83
2022/03/12 08:49:28;;;;;;;10.30;6.00;;;7.50;58.50;;;;;;6316883;22;20058;-84
2022/03/12 08:52:07;;;;;;;8.82;5.72;;;7.70;58.80;;;;;;6308797;22;20070;-91
2022/03/12 08:54:33;;;;;;;12.50;6.25;;;8.80;59.40;;;;;;6317569;22;20015;-91
2022/03/12 08:57:05;;;;;;;10.38;6.25;;;8.00;58.50;;;;;;6354736;22;20026;-93
2022/03/12 08:59:31;;;;;;;12.77;5.93;;;8.10;58.30;;;;;;6322830;22;20034;-90
2022/03/12 09:07:16;;;;;;;12.02;6.65;;;8.40;57.70;;;;;;6328709;22;20022;-88
2022/03/12 09:23:52;;;;;;;9.95;6.38;;;8.90;57.90;;;;;;6329428;22;20027;-91
2022/03/12 09:37:55;;;;;;;11.70;6.60;;;9.30;58.10;;;;;;6190843;23;20005;-87
2022/03/12 09:52:14;;;;;;;11.48;6.78;;;10.00;58.00;;;;;;6326385;22;20035;-93
2022/03/12 09:54:55;;;;;;;12.50;6.85;;;10.50;58.40;;;;;;6342829;22;20502;-90
2022/03/12 09:57:24;;;;;;;11.07;6.35;;;10.30;58.30;;;;;;6337870;22;20019;-88
2022/03/12 10:00:06;;;;;;;11.80;6.72;;;10.60;58.60;;;;;;6314959;22;20101;-88
2022/03/12 10:15:31;;;;;;;11.20;7.22;;;11.30;59.70;;;;;;6307861;22;20005;-89
2022/03/12 10:17:58;;;;;;;12.15;7.30;;;11.40;60.00;;;;;;6311867;22;20167;-87
2022/03/12 10:29:15;;;;;;;14.07;7.70;;;12.00;61.50;;;;;;6306900;22;20019;-91
2022/03/12 10:31:41;;;;;;;15.88;6.13;;;12.10;61.80;;;;;;6306824;22;20015;-93
2022/03/12 10:34:21;;;;;;;10.68;7.05;;;12.20;62.30;;;;;;6310600;22;20407;-91
2022/03/12 10:36:51;;;;;;;99.97;53.70;;;12.30;62.10;;;;;;6313709;22;20030;-87
2022/03/12 10:39:31;;;;;;;50.67;28.33;;;12.30;62.50;;;;;;6284199;22;20037;-86
2022/03/12 10:42:07;;;;;;;103.10;64.85;;;12.50;62.70;;;;;;6291325;22;20049;-90
2022/03/12 10:44:46;;;;;;;11.85;7.28;;;12.40;62.60;;;;;;6295195;22;20023;-90
2022/03/12 10:47:38;;;;;;;14.57;8.40;;;12.70;63.10;;;;;;6321623;22;20015;-92
2022/03/12 10:50:22;;;;;;;11.60;7.63;;;12.70;63.10;;;;;;6284584;22;20022;-86
2022/03/12 10:53:10;;;;;;;11.63;7.55;;;13.50;63.70;;;;;;6275105;22;20007;-87
2022/03/12 10:55:54;;;;;;;11.77;6.63;;;13.60;64.10;;;;;;6290690;22;20086;-92
2022/03/12 10:58:27;;;;;;;12.27;7.53;;;13.10;63.80;;;;;;6282999;22;20029;-91
2022/03/12 11:01:27;;;;;;;14.85;8.18;;;13.50;63.40;;;;;;6280969;22;20119;-94
2022/03/12 11:03:53;;;;;;;11.98;7.55;;;13.50;63.00;;;;;;6280978;22;20095;-91
2022/03/12 11:06:23;;;;;;;10.65;7.30;;;13.60;62.90;;;;;;6310701;22;20109;-88
2022/03/12 11:09:19;;;;;;;13.52;8.43;;;13.60;62.80;;;;;;6289045;22;20016;-88
2022/03/12 11:11:56;;;;;;;12.63;7.70;;;13.70;63.20;;;;;;6315685;22;20019;-89
2022/03/12 11:14:29;;;;;;;11.82;7.38;;;14.60;63.50;;;;;;6284394;22;20030;-90
2022/03/12 11:16:56;;;;;;;13.38;7.97;;;14.40;63.40;;;;;;6279934;22;20030;-94
2022/03/12 11:19:45;;;;;;;16.48;8.85;;;13.70;63.80;;;;;;6289427;22;20016;-94
2022/03/12 11:22:13;;;;;;;10.30;7.32;;;13.80;64.20;;;;;;6303287;22;20027;-94
2022/03/12 11:24:57;;;;;;;16.92;7.85;;;13.80;64.20;;;;;;6277265;22;20391;-88
2022/03/12 11:27:34;;;;;;;12.60;7.57;;;13.80;65.00;;;;;;6274838;22;20025;-89
2022/03/12 11:30:10;;;;;;;11.40;8.30;;;13.80;64.90;;;;;;6276945;22;20501;-92
2022/03/12 11:32:44;;;;;;;12.38;7.72;;;13.80;64.80;;;;;;6304172;22;20081;-88
2022/03/12 11:38:31;;;;;;;10.23;7.70;;;13.90;65.10;;;;;;6305948;22;20030;-90
2022/03/12 11:41:24;;;;;;;13.35;7.45;;;13.20;65.40;;;;;;6251344;22;20020;-87
2022/03/12 11:46:38;;;;;;;11.52;7.75;;;13.90;66.10;;;;;;6278245;22;20015;-87
2022/03/12 11:49:05;;;;;;;13.20;7.47;;;14.60;66.60;;;;;;6277782;22;20030;-89
2022/03/12 11:51:30;;;;;;;10.15;7.43;;;14.00;66.40;;;;;;6282638;22;20042;-88
2022/03/12 11:53:56;;;;;;;15.88;7.93;;;14.10;67.30;;;;;;6287220;22;20023;-90
2022/03/12 11:56:27;;;;;;;10.77;6.85;;;14.80;67.40;;;;;;6286920;22;20121;-94
2022/03/12 11:58:53;;;;;;;10.20;6.60;;;14.60;67.00;;;;;;6281008;22;20019;-87
2022/03/12 12:01:22;;;;;;;10.18;6.53;;;14.60;67.10;;;;;;6280674;22;20078;-92
2022/03/12 12:03:53;;;;;;;10.43;6.10;;;14.70;67.00;;;;;;6284139;22;20042;-89
2022/03/12 12:06:19;;;;;;;11.30;6.45;;;14.60;68.00;;;;;;6278022;22;20027;-90
2022/03/12 12:08:46;;;;;;;9.95;6.50;;;15.10;67.90;;;;;;6304376;22;20015;-87
2022/03/12 12:11:18;;;;;;;14.07;8.05;;;14.20;67.70;;;;;;6275994;22;20011;-88
2022/03/12 12:13:45;;;;;;;13.95;7.32;;;14.60;68.00;;;;;;6276813;22;20375;-85
2022/03/12 12:16:11;;;;;;;14.98;7.65;;;14.70;68.10;;;;;;6287759;22;20019;-84
2022/03/12 12:18:38;;;;;;;11.05;7.38;;;14.70;67.80;;;;;;6281216;22;20096;-88
2022/03/12 12:21:05;;;;;;;9.73;6.32;;;14.90;67.30;;;;;;6278473;22;20039;-87
2022/03/12 12:23:34;;;;;;;51.55;35.88;;;15.00;67.50;;;;;;6279923;22;20019;-89
2022/03/12 12:26:20;;;;;;;10.85;7.00;;;15.20;67.70;;;;;;6280838;22;20196;-88
2022/03/12 12:28:56;;;;;;;193.32;113.45;;;15.10;68.00;;;;;;6283353;22;20049;-89
2022/03/12 12:31:28;;;;;;;11.20;7.10;;;15.10;68.20;;;;;;6280140;22;20015;-86
2022/03/12 12:36:59;;;;;;;8.45;5.60;;;15.30;67.40;;;;;;6300049;22;20038;-87
2022/03/12 12:43:10;;;;;;;10.50;5.07;;;15.50;66.90;;;;;;6271387;22;20357;-90
2022/03/12 12:45:53;;;;;;;9.48;5.20;;;16.10;67.30;;;;;;6304292;22;20450;-88
2022/03/12 12:48:34;;;;;;;8.18;4.88;;;15.50;65.90;;;;;;6281833;22;20023;-91
2022/03/12 13:04:06;;;;;;;9.73;6.13;;;15.90;65.40;;;;;;6318833;22;20027;-87
2022/03/12 13:06:53;;;;;;;10.35;5.63;;;16.30;65.40;;;;;;6308884;22;20015;-87
2022/03/12 13:14:48;;;;;;;8.32;4.90;;;15.30;65.50;;;;;;6326535;22;20023;-87
2022/03/12 13:17:35;;;;;;;11.43;5.70;;;15.50;66.00;;;;;;6314532;22;20025;-91
2022/03/12 13:20:41;;;;;;;13.60;6.25;;;15.10;66.50;;;;;;6325235;22;20057;-90
2022/03/12 13:23:15;;;;;;;12.35;5.72;;;14.80;67.10;;;;;;6322496;22;20010;-85
2022/03/12 13:25:59;;;;;;;11.35;7.60;;;15.00;67.80;;;;;;6326926;22;20006;-91
2022/03/12 13:28:58;;;;;;;11.80;6.18;;;14.60;68.80;;;;;;6311194;22;20023;-85
2022/03/12 13:31:28;;;;;;;10.75;6.32;;;14.70;68.80;;;;;;6312539;22;20023;-90
2022/03/12 13:34:07;;;;;;;9.02;6.03;;;14.80;68.30;;;;;;6305127;22;20019;-88
2022/03/12 13:36:48;;;;;;;11.05;6.28;;;14.90;68.60;;;;;;6306043;22;20400;-90
2022/03/12 13:39:19;;;;;;;9.70;6.53;;;15.40;68.90;;;;;;6329641;22;20015;-85
2022/03/12 13:42:03;;;;;;;10.48;5.82;;;15.50;68.10;;;;;;6305490;22;20223;-84
2022/03/12 13:44:55;;;;;;;;;;;;;;;;;;;;;
2022/03/12 13:47:36;;;;;;;;;;;14.90;68.10;;;;;;6277152;22;20716;-92
2022/03/12 13:50:27;;;;;;;8.68;6.00;;;15.80;68.50;;;;;;6281503;22;20352;-92
2022/03/12 13:52:55;;;;;;;;;;;14.90;68.00;;;;;;6336627;22;20022;-90
2022/03/12 13:55:30;;;;;;;9.40;6.00;;;14.80;68.50;;;;;;6333716;22;20387;-87
2022/03/12 14:06:07;;;;;;;8.65;5.45;;;14.70;67.70;;;;;;6349060;22;20383;-93
2022/03/12 14:08:51;;;;;;;7.53;5.07;;;14.50;68.70;;;;;;6186704;23;20044;-88
2022/03/12 14:11:34;;;;;;;10.60;5.38;;;14.50;68.50;;;;;;6182239;22;20013;-88
2022/03/12 14:14:35;;;;;;;10.00;5.70;;;14.70;67.20;;;;;;6312486;22;20022;-85
2022/03/12 14:17:04;;;;;;;10.60;4.80;;;14.30;67.80;;;;;;6307138;22;20100;-89
2022/03/12 14:19:42;;;;;;;8.27;4.97;;;14.60;67.40;;;;;;6322961;22;20065;-84
2022/03/12 14:22:16;;;;;;;7.60;5.13;;;14.40;67.00;;;;;;6324767;22;20019;-89
2022/03/12 14:25:05;;;;;;;7.72;5.07;;;14.50;67.00;;;;;;6301313;22;20019;-87
2022/03/12 14:36:17;;;;;;;10.82;5.57;;;14.50;67.10;;;;;;6308371;22;19922;-85
2022/03/12 14:39:34;;;;;;;9.32;5.20;;;14.50;67.50;;;;;;6279857;22;20076;-90
2022/03/12 14:42:04;;;;;;;6.82;4.55;;;14.50;68.20;;;;;;6334448;22;20026;-86
2022/03/12 14:44:41;;;;;;;9.27;4.95;;;14.50;67.40;;;;;;6307146;22;20406;-91
2022/03/12 14:47:40;;;;;;;8.18;4.10;;;14.50;67.60;;;;;;6306611;22;20050;-86
2022/03/12 14:50:11;;;;;;;9.02;5.10;;;14.10;67.50;;;;;;6240711;22;20027;-87
2022/03/12 14:52:39;;;;;;;;;;;14.40;67.80;;;;;;6321447;22;20041;-89
2022/03/12 14:55:27;;;;;;;9.02;5.13;;;14.40;68.10;;;;;;6312411;22;20655;-83
2022/03/12 14:58:01;;;;;;;8.77;4.35;;;13.90;68.30;;;;;;6323304;22;20014;-89
2022/03/12 15:00:27;;;;;;;9.43;4.50;;;14.30;68.60;;;;;;6286085;22;20117;-92
2022/03/12 15:03:10;;;;;;;10.18;4.97;;;14.80;68.80;;;;;;6336171;22;20310;-88
2022/03/12 15:05:38;;;;;;;7.25;4.50;;;14.20;68.70;;;;;;6308506;22;20500;-79
2022/03/12 15:08:08;;;;;;;16.30;6.03;;;14.20;68.40;;;;;;6343447;22;20468;-93
2022/03/12 15:10:38;;;;;;;11.75;4.85;;;14.40;68.70;;;;;;6314720;22;20026;-87
2022/03/12 15:13:08;;;;;;;9.95;4.85;;;14.10;68.60;;;;;;6314626;22;20096;-93
2022/03/12 15:27:15;;;;;;;11.85;5.00;;;14.10;69.50;;;;;;6181210;23;20021;-92
2022/03/12 15:32:22;;;;;;;8.52;4.93;;;14.10;69.80;;;;;;6335255;22;20080;-89
2022/03/12 15:34:54;;;;;;;10.15;4.80;;;14.00;70.60;;;;;;6310971;22;20050;-93
2022/03/12 15:38:05;;;;;;;12.15;5.70;;;14.00;70.10;;;;;;6313470;22;20022;-92
2022/03/12 15:40:43;;;;;;;8.97;5.40;;;14.00;70.40;;;;;;6306382;22;20093;-88
2022/03/12 15:43:11;;;;;;;9.32;6.00;;;14.50;70.40;;;;;;6341959;22;20015;-89
2022/03/12 15:45:44;;;;;;;10.40;6.15;;;13.40;70.20;;;;;;6342177;22;20080;-94
2022/03/12 15:48:13;;;;;;;13.25;6.93;;;14.00;70.70;;;;;;6311553;22;20021;-90
2022/03/12 15:50:48;;;;;;;11.25;5.28;;;14.70;70.90;;;;;;6286349;22;20106;-88
2022/03/12 15:53:16;;;;;;;12.32;5.72;;;13.80;70.60;;;;;;6310145;22;20295;-92
2022/03/12 15:55:44;;;;;;;41.95;27.40;;;14.70;70.90;;;;;;6311557;22;20065;-88
2022/03/12 15:58:16;;;;;;;11.43;5.78;;;14.00;70.40;;;;;;6308342;22;20413;-90
2022/03/12 16:00:43;;;;;;;12.45;5.90;;;14.40;70.80;;;;;;6306933;22;20025;-89
2022/03/12 16:03:59;;;;;;;11.98;6.53;;;14.00;70.60;;;;;;6333896;22;20019;-88
2022/03/12 16:06:43;;;;;;;14.85;6.00;;;13.50;70.60;;;;;;6336198;22;20141;-84
2022/03/12 16:09:09;;;;;;;7.50;5.07;;;14.00;70.70;;;;;;6305922;22;20018;-86
2022/03/12 16:11:52;;;;;;;11.60;5.45;;;13.70;70.30;;;;;;6308330;22;20265;-87
2022/03/12 16:14:41;;;;;;;8.30;4.80;;;13.90;70.90;;;;;;6340835;22;20062;-87
2022/03/12 16:17:23;;;;;;;9.43;4.22;;;14.50;70.70;;;;;;6308615;22;20057;-84
2022/03/12 16:19:56;;;;;;;8.13;5.60;;;14.50;70.00;;;;;;6313023;22;20057;-86
2022/03/12 16:22:40;;;;;;;12.02;5.35;;;13.80;69.90;;;;;;6314686;22;20019;-85
2022/03/12 16:25:31;;;;;;;8.02;4.82;;;13.50;69.80;;;;;;6308425;22;20065;-80
2022/03/12 16:27:59;;;;;;;8.45;4.47;;;13.90;70.00;;;;;;6332187;22;20065;-80
2022/03/12 16:30:25;;;;;;;8.13;4.93;;;14.20;70.30;;;;;;6302486;22;20493;-80
2022/03/12 16:32:54;;;;;;;9.30;4.85;;;13.90;70.40;;;;;;6328951;22;20023;-83
2022/03/12 16:35:26;;;;;;;8.15;4.40;;;14.20;70.90;;;;;;6331392;22;20474;-79
2022/03/12 16:37:58;;;;;;;8.82;4.90;;;14.10;70.90;;;;;;6329820;22;20605;-80
2022/03/12 16:40:32;;;;;;;8.07;4.78;;;13.80;70.80;;;;;;6331267;22;20023;-80
2022/03/12 16:42:59;;;;;;;7.88;4.65;;;13.80;71.00;;;;;;6304384;22;20022;-81
2022/03/12 16:45:26;;;;;;;9.32;4.57;;;13.80;71.30;;;;;;6303610;22;20027;-81
2022/03/12 16:47:58;;;;;;;8.85;4.13;;;13.70;71.60;;;;;;6332641;22;20037;-83
2022/03/12 16:50:26;;;;;;;8.50;5.07;;;13.70;71.80;;;;;;6305511;22;20046;-83
2022/03/12 16:52:51;;;;;;;8.82;4.72;;;13.70;72.00;;;;;;6304073;22;20025;-80
2022/03/12 16:55:17;;;;;;;9.13;5.03;;;13.90;72.00;;;;;;6299726;22;20018;-81
2022/03/12 16:57:54;;;;;;;10.40;5.38;;;13.60;71.90;;;;;;6303176;22;20042;-81
2022/03/12 17:00:24;;;;;;;9.63;4.75;;;13.50;71.90;;;;;;6332204;22;20307;-81
2022/03/12 17:02:51;;;;;;;6.88;4.50;;;13.40;72.10;;;;;;6327061;22;20053;-82
2022/03/12 17:05:17;;;;;;;10.65;4.93;;;14.00;72.70;;;;;;6304774;22;20106;-81
2022/03/12 17:07:43;;;;;;;9.98;4.63;;;13.30;72.50;;;;;;6304068;22;20097;-80
2022/03/12 17:10:12;;;;;;;10.00;5.03;;;13.20;72.90;;;;;;6303463;22;20026;-80
2022/03/12 17:12:38;;;;;;;8.35;4.40;;;13.10;73.40;;;;;;6303885;22;20476;-81